Time;durP1;ratioP1;P1;durP2;ratioP2;P2;SDS_P1;SDS_P2;PMS_P1;PMS_P2;Temp;Humidity;BMP_temperature;BMP_pressure;BME280_temperature;BME280_humidity;BME280_pressure;Samples;Min_cycle;Max_cycle;Signal;HPM_P1;HPM_P2
2021/07/25 05:01:44;;;;;;;52.77;47.93;;;;;;;;;;5430578;23;20496;-69
2021/07/25 05:04:30;;;;;;;52.50;47.57;;;;;;;;;;4933949;29;20221;-69
2021/07/25 05:07:16;;;;;;;50.53;45.67;;;;;;;;;;4933371;29;20209;-69
2021/07/25 05:10:02;;;;;;;48.80;44.30;;;;;;;;;;4933809;29;20310;-70
2021/07/25 05:12:50;;;;;;;49.70;44.70;;;;;;;;;;4914883;29;20235;-70
2021/07/25 05:15:37;;;;;;;45.87;41.67;;;;;;;;;;4916067;29;20815;-70
2021/07/25 05:18:29;;;;;;;45.30;40.97;;;;;;;;;;4914832;29;20217;-70
2021/07/25 05:21:20;;;;;;;49.38;45.08;;;;;;;;;;4913556;29;20416;-70
2021/07/25 05:24:06;;;;;;;43.37;39.43;;;;;;;;;;4914671;29;20209;-70
2021/07/25 05:26:52;;;;;;;40.07;36.57;;;;;;;;;;4913760;29;20230;-70
2021/07/25 05:29:38;;;;;;;35.60;32.50;;;;;;;;;;4915006;29;20273;-70
2021/07/25 05:32:23;;;;;;;34.27;31.27;;;;;;;;;;4914569;29;20233;-70
2021/07/25 05:35:10;;;;;;;32.93;30.13;;;;;;;;;;4914621;29;20202;-69
2021/07/25 05:37:55;;;;;;;31.97;28.97;;;;;;;;;;4913993;29;20572;-70
2021/07/25 05:40:39;;;;;;;29.97;27.47;;;;;;;;;;4913679;29;20211;-69
2021/07/25 05:43:24;;;;;;;27.67;25.27;;;;;;;;;;4914531;29;20289;-70
2021/07/25 05:46:09;;;;;;;26.60;24.40;;;;;;;;;;4913693;29;20604;-70
2021/07/25 05:48:54;;;;;;;25.77;23.67;;;;;;;;;;4914179;29;20217;-70
2021/07/25 05:51:40;;;;;;;25.93;23.53;;;;;;;;;;4914495;29;20233;-69
2021/07/25 05:54:25;;;;;;;23.80;21.70;;;;;;;;;;4914565;29;20212;-70
2021/07/25 05:57:10;;;;;;;23.23;21.13;;;;;;;;;;4913896;29;20216;-70
2021/07/25 05:59:55;;;;;;;23.07;21.23;;;;;;;;;;4913980;29;20576;-70
2021/07/25 06:02:50;;;;;;;21.67;19.90;;;;;;;;;;4914254;29;20245;-70
2021/07/25 06:05:36;;;;;;;21.50;19.67;;;;;;;;;;4914263;29;20725;-69
2021/07/25 06:08:22;;;;;;;20.40;18.60;;;;;;;;;;4914342;29;20218;-70
2021/07/25 06:11:07;;;;;;;18.30;16.80;;;;;;;;;;4914274;29;20227;-70
2021/07/25 06:13:52;;;;;;;19.70;17.93;;;;;;;;;;4914743;29;20253;-69
2021/07/25 06:16:37;;;;;;;17.53;16.10;;;;;;;;;;4913749;29;20212;-69
2021/07/25 06:19:22;;;;;;;18.07;16.43;;;;;;;;;;4914591;29;20249;-70
2021/07/25 06:22:07;;;;;;;20.45;18.85;;;;;;;;;;4913554;29;20933;-69
2021/07/25 06:24:54;;;;;;;18.10;16.67;;;;;;;;;;4914450;29;20628;-69
2021/07/25 06:27:39;;;;;;;17.60;16.13;;;;;;;;;;4913949;29;20249;-69
2021/07/25 06:30:25;;;;;;;18.73;17.17;;;;;;;;;;4914407;29;20213;-69
2021/07/25 06:33:10;;;;;;;18.70;17.17;;;;;;;;;;4914147;29;20213;-69
2021/07/25 06:35:56;;;;;;;18.93;17.13;;;;;;;;;;4913746;29;20268;-69
2021/07/25 06:38:42;;;;;;;18.07;16.37;;;;;;;;;;4914327;29;20242;-70
2021/07/25 06:41:28;;;;;;;16.03;14.63;;;;;;;;;;4914228;29;20230;-70
2021/07/25 06:44:13;;;;;;;15.77;14.50;;;;;;;;;;4914394;29;20222;-70
2021/07/25 06:46:58;;;;;;;15.37;14.17;;;;;;;;;;4913168;29;20254;-69
2021/07/25 06:49:43;;;;;;;16.83;15.43;;;;;;;;;;4914112;29;20216;-69
2021/07/25 06:52:27;;;;;;;17.40;15.93;;;;;;;;;;4916361;29;20237;-69
2021/07/25 06:55:12;;;;;;;16.33;14.80;;;;;;;;;;4917310;29;20215;-70
2021/07/25 06:57:58;;;;;;;16.97;15.60;;;;;;;;;;4916372;29;20212;-70
2021/07/25 07:00:43;;;;;;;15.60;14.10;;;;;;;;;;4917295;29;20234;-70
2021/07/25 07:03:28;;;;;;;15.97;14.00;;;;;;;;;;4917259;29;20225;-70
2021/07/25 07:06:13;;;;;;;15.60;14.27;;;;;;;;;;4916291;29;20318;-70
2021/07/25 07:08:58;;;;;;;15.77;14.37;;;;;;;;;;4916946;29;20210;-70
2021/07/25 07:11:43;;;;;;;14.43;13.33;;;;;;;;;;4917122;29;20282;-68
2021/07/25 07:14:29;;;;;;;14.80;13.50;;;;;;;;;;4917107;29;20265;-70
2021/07/25 07:17:14;;;;;;;14.57;13.47;;;;;;;;;;4916041;29;20702;-70
2021/07/25 07:19:58;;;;;;;13.30;12.13;;;;;;;;;;4916844;29;20214;-70
2021/07/25 07:22:51;;;;;;;14.82;13.57;;;;;;;;;;4916029;29;20557;-70
2021/07/25 07:25:37;;;;;;;14.23;13.03;;;;;;;;;;4916669;29;20229;-70
2021/07/25 07:28:22;;;;;;;13.67;12.57;;;;;;;;;;4916797;29;20222;-70
2021/07/25 07:31:09;;;;;;;12.93;11.83;;;;;;;;;;4916680;29;20384;-70
2021/07/25 07:33:54;;;;;;;13.13;12.03;;;;;;;;;;4916648;29;20209;-70
2021/07/25 07:36:39;;;;;;;14.37;13.27;;;;;;;;;;4915822;29;20584;-70
2021/07/25 07:39:23;;;;;;;13.57;12.47;;;;;;;;;;4916303;29;20206;-70
2021/07/25 07:42:09;;;;;;;13.87;12.67;;;;;;;;;;4916503;29;20242;-71
2021/07/25 07:44:54;;;;;;;12.30;11.27;;;;;;;;;;4916538;29;20273;-70
2021/07/25 07:47:41;;;;;;;13.53;12.33;;;;;;;;;;4915813;29;20203;-70
2021/07/25 07:50:25;;;;;;;12.83;11.70;;;;;;;;;;4916170;29;20201;-70
2021/07/25 07:53:10;;;;;;;12.50;11.43;;;;;;;;;;4916344;29;20206;-70
2021/07/25 07:55:55;;;;;;;11.97;11.10;;;;;;;;;;4915547;29;20230;-71
2021/07/25 07:58:40;;;;;;;12.47;11.47;;;;;;;;;;4916086;29;20247;-70
2021/07/25 08:01:25;;;;;;;12.10;11.20;;;;;;;;;;4915955;29;20611;-71
2021/07/25 08:04:11;;;;;;;11.80;11.00;;;;;;;;;;4915305;29;20231;-70
2021/07/25 08:06:56;;;;;;;10.67;9.73;;;;;;;;;;4914989;29;20234;-70
2021/07/25 08:09:41;;;;;;;9.67;8.97;;;;;;;;;;4916192;29;20205;-70
2021/07/25 08:12:26;;;;;;;9.13;8.43;;;;;;;;;;4915857;29;20274;-70
2021/07/25 08:15:12;;;;;;;9.93;9.03;;;;;;;;;;4915824;29;20214;-70
2021/07/25 08:17:57;;;;;;;10.17;9.03;;;;;;;;;;4915100;29;20205;-70
2021/07/25 08:20:43;;;;;;;9.77;8.97;;;;;;;;;;4915654;29;20234;-70
2021/07/25 08:23:28;;;;;;;10.23;9.50;;;;;;;;;;4914844;29;20423;-70
2021/07/25 08:26:13;;;;;;;10.50;9.60;;;;;;;;;;4914872;29;20720;-70
2021/07/25 08:28:58;;;;;;;10.07;9.37;;;;;;;;;;4915557;29;20230;-70
2021/07/25 08:31:43;;;;;;;11.13;10.20;;;;;;;;;;4915464;29;20345;-71
2021/07/25 08:34:28;;;;;;;11.30;10.57;;;;;;;;;;4915468;29;20723;-70
2021/07/25 08:37:14;;;;;;;11.63;10.63;;;;;;;;;;4914763;29;20218;-70
2021/07/25 08:40:01;;;;;;;11.60;10.70;;;;;;;;;;4915539;29;20213;-70
2021/07/25 08:42:49;;;;;;;12.13;11.13;;;;;;;;;;4915244;29;20222;-70
2021/07/25 08:45:35;;;;;;;12.23;11.23;;;;;;;;;;4915090;29;20233;-70
2021/07/25 08:48:22;;;;;;;13.80;12.80;;;;;;;;;;4915189;29;20342;-70
2021/07/25 08:51:06;;;;;;;14.23;13.07;;;;;;;;;;4915141;29;20233;-70
2021/07/25 08:54:00;;;;;;;14.17;13.07;;;;;;;;;;4915211;29;20246;-71
2021/07/25 08:56:47;;;;;;;14.53;13.43;;;;;;;;;;4914124;29;20222;-71
2021/07/25 08:59:35;;;;;;;14.73;13.57;;;;;;;;;;4915190;29;20690;-70
2021/07/25 09:02:21;;;;;;;14.80;13.70;;;;;;;;;;4914930;29;20302;-70
2021/07/25 09:05:07;;;;;;;14.10;13.00;;;;;;;;;;4915037;29;20215;-70
2021/07/25 09:07:53;;;;;;;14.20;12.90;;;;;;;;;;4914354;29;20215;-70
2021/07/25 09:10:40;;;;;;;14.20;13.10;;;;;;;;;;4914766;29;20579;-70
2021/07/25 09:13:25;;;;;;;12.87;11.73;;;;;;;;;;4914887;29;20303;-70
2021/07/25 09:16:10;;;;;;;13.43;12.20;;;;;;;;;;4914276;29;20321;-70
2021/07/25 09:18:55;;;;;;;13.27;12.17;;;;;;;;;;4914578;29;20587;-70
2021/07/25 09:21:41;;;;;;;13.37;12.37;;;;;;;;;;4914706;29;20222;-70
2021/07/25 09:24:27;;;;;;;13.32;12.32;;;;;;;;;;4913541;29;20464;-70
2021/07/25 09:27:17;;;;;;;13.60;12.60;;;;;;;;;;4913831;29;20732;-70
2021/07/25 09:30:15;;;;;;;13.30;12.20;;;;;;;;;;4914481;29;20339;-70
2021/07/25 09:33:01;;;;;;;12.30;11.30;;;;;;;;;;4914567;29;20330;-70
2021/07/25 09:35:46;;;;;;;10.80;9.90;;;;;;;;;;4914022;29;20208;-67
2021/07/25 09:38:31;;;;;;;11.93;10.97;;;;;;;;;;4914503;29;20206;-70
2021/07/25 09:41:24;;;;;;;14.10;9.20;;;;;;;;;;4914560;29;20229;-70
2021/07/25 09:44:12;;;;;;;11.37;10.27;;;;;;;;;;4914641;29;20294;-69
2021/07/25 09:46:57;;;;;;;12.50;11.40;;;;;;;;;;4913584;29;20242;-70
2021/07/25 09:49:43;;;;;;;11.20;10.30;;;;;;;;;;4914536;29;20282;-70
2021/07/25 09:52:29;;;;;;;13.27;12.13;;;;;;;;;;4914330;29;20249;-69
2021/07/25 09:55:14;;;;;;;12.97;11.97;;;;;;;;;;4914365;29;20210;-69
2021/07/25 09:57:59;;;;;;;12.10;10.90;;;;;;;;;;4913985;29;20568;-70
2021/07/25 10:00:46;;;;;;;10.63;9.70;;;;;;;;;;4914142;29;20258;-70
2021/07/25 10:03:34;;;;;;;10.37;9.53;;;;;;;;;;4914310;29;20254;-70
2021/07/25 10:06:23;;;;;;;9.23;8.43;;;;;;;;;;4913597;29;20218;-69
2021/07/25 10:09:09;;;;;;;9.93;9.13;;;;;;;;;;4914317;29;20234;-69
2021/07/25 10:11:55;;;;;;;9.67;8.73;;;;;;;;;;4914296;29;20261;-70
2021/07/25 10:14:40;;;;;;;9.80;8.90;;;;;;;;;;4914189;29;20214;-70
2021/07/25 10:17:27;;;;;;;9.60;8.57;;;;;;;;;;4913551;29;20202;-70
2021/07/25 10:20:16;;;;;;;9.27;8.37;;;;;;;;;;4914665;29;20259;-70
2021/07/25 10:23:02;;;;;;;9.97;9.00;;;;;;;;;;4914161;29;20353;-70
2021/07/25 10:25:50;;;;;;;10.03;9.23;;;;;;;;;;4913618;29;20734;-68
2021/07/25 10:28:35;;;;;;;10.03;9.23;;;;;;;;;;4917671;29;20618;-70
2021/07/25 10:31:22;;;;;;;9.77;8.80;;;;;;;;;;4917621;29;20229;-69
2021/07/25 10:34:09;;;;;;;10.10;9.30;;;;;;;;;;4917583;29;20206;-69
2021/07/25 10:36:54;;;;;;;9.97;9.17;;;;;;;;;;4916693;29;20444;-69
2021/07/25 10:39:42;;;;;;;10.37;9.53;;;;;;;;;;4917638;29;20694;-70
2021/07/25 10:42:28;;;;;;;10.87;9.80;;;;;;;;;;4917465;29;20267;-70
2021/07/25 10:45:13;;;;;;;10.23;9.23;;;;;;;;;;4917543;29;20241;-70
2021/07/25 10:48:12;;;;;;;11.10;9.97;;;;;;;;;;4916523;29;20741;-69
2021/07/25 10:51:10;;;;;;;10.40;9.60;;;;;;;;;;4917348;29;20225;-70
2021/07/25 10:54:15;;;;;;;11.00;9.87;;;;;;;;;;4917379;29;20198;-70
2021/07/25 10:57:00;;;;;;;10.38;9.57;;;;;;;;;;4916045;29;20501;-70
2021/07/25 10:59:46;;;;;;;11.87;10.87;;;;;;;;;;4916896;29;20210;-70
2021/07/25 11:02:50;;;;;;;11.47;10.47;;;;;;;;;;4917018;29;20253;-69
2021/07/25 11:06:00;;;;;;;10.50;8.93;;;;;;;;;;4917193;29;20577;-70
2021/07/25 11:08:47;;;;;;;10.13;8.87;;;;;;;;;;4917088;29;20210;-69
2021/07/25 11:11:54;;;;;;;8.70;7.80;;;;;;;;;;4916749;29;20242;-70
2021/07/25 11:18:02;;;;;;;7.30;6.70;;;;;;;;;;5087205;28;20543;-69
2021/07/25 11:20:58;;;;;;;7.93;7.00;;;;;;;;;;5087581;28;20223;-68
2021/07/25 11:23:43;;;;;;;7.37;6.67;;;;;;;;;;5087968;28;20342;-69
2021/07/25 11:26:34;;;;;;;6.73;6.07;;;;;;;;;;5087353;28;20574;-68
2021/07/25 11:29:40;;;;;;;6.70;6.20;;;;;;;;;;5088267;28;20219;-68
2021/07/25 11:32:34;;;;;;;7.20;5.93;;;;;;;;;;5087875;28;20590;-68
2021/07/25 11:35:21;;;;;;;6.10;5.50;;;;;;;;;;5088046;28;20595;-69
2021/07/25 11:38:10;;;;;;;6.73;6.03;;;;;;;;;;5087399;28;20199;-69
2021/07/25 11:40:55;;;;;;;6.23;5.63;;;;;;;;;;5088260;28;20825;-68
2021/07/25 11:43:53;;;;;;;5.97;5.37;;;;;;;;;;5087576;28;20208;-69
2021/07/25 11:46:39;;;;;;;5.17;4.77;;;;;;;;;;5086761;28;20208;-69
2021/07/25 11:49:25;;;;;;;6.53;5.10;;;;;;;;;;5087659;28;20290;-69
2021/07/25 11:52:12;;;;;;;6.10;5.50;;;;;;;;;;5087584;28;20250;-69
2021/07/25 11:54:57;;;;;;;5.30;4.80;;;;;;;;;;5087549;28;20281;-69
2021/07/25 11:57:43;;;;;;;6.83;4.80;;;;;;;;;;5086616;28;20314;-69
2021/07/25 12:00:28;;;;;;;6.23;4.80;;;;;;;;;;5087570;28;20274;-69
2021/07/25 12:03:13;;;;;;;5.17;4.77;;;;;;;;;;5087474;28;20212;-69
2021/07/25 12:06:09;;;;;;;5.07;4.60;;;;;;;;;;5086564;28;20285;-68
2021/07/25 12:09:06;;;;;;;5.37;4.33;;;;;;;;;;5088702;28;20290;-68
2021/07/25 12:12:00;;;;;;;7.53;4.63;;;;;;;;;;5089425;28;20224;-68
2021/07/25 12:14:46;;;;;;;4.70;4.30;;;;;;;;;;5089309;28;20204;-68
2021/07/25 12:17:47;;;;;;;4.93;4.40;;;;;;;;;;5086263;28;20228;-69
2021/07/25 12:20:35;;;;;;;7.17;4.53;;;;;;;;;;5086795;28;20218;-69
2021/07/25 12:23:35;;;;;;;4.77;3.93;;;;;;;;;;5087172;28;20208;-68
2021/07/25 12:26:37;;;;;;;5.15;4.50;;;;;;;;;;5085650;28;20777;-68
2021/07/25 12:29:42;;;;;;;4.93;3.90;;;;;;;;;;5073502;28;20302;-69
2021/07/25 12:32:28;;;;;;;4.60;4.20;;;;;;;;;;5073364;28;20228;-69
2021/07/25 12:35:24;;;;;;;4.57;4.00;;;;;;;;;;5073398;28;20231;-69
2021/07/25 12:38:09;;;;;;;4.20;3.80;;;;;;;;;;5072541;28;20602;-69
2021/07/25 12:40:55;;;;;;;5.63;4.30;;;;;;;;;;5073463;28;20224;-69
2021/07/25 12:43:58;;;;;;;5.20;3.97;;;;;;;;;;5073208;28;20204;-69
2021/07/25 12:46:43;;;;;;;4.87;4.30;;;;;;;;;;5072338;28;20204;-69
2021/07/25 12:49:28;;;;;;;5.90;3.90;;;;;;;;;;5073161;28;20228;-69
2021/07/25 12:52:20;;;;;;;4.43;4.03;;;;;;;;;;5072972;28;20228;-69
2021/07/25 12:55:05;;;;;;;4.53;4.13;;;;;;;;;;5073040;28;20197;-68
2021/07/25 12:57:50;;;;;;;4.60;4.17;;;;;;;;;;5072012;28;20294;-68
2021/07/25 13:00:49;;;;;;;4.57;3.87;;;;;;;;;;5072613;28;20227;-69
2021/07/25 13:03:45;;;;;;;5.20;3.90;;;;;;;;;;5072835;28;20197;-68
2021/07/25 13:06:31;;;;;;;4.53;4.13;;;;;;;;;;5072095;28;20220;-68
2021/07/25 13:09:16;;;;;;;4.33;3.83;;;;;;;;;;5072758;28;20259;-69
2021/07/25 13:12:01;;;;;;;4.60;3.80;;;;;;;;;;5072889;28;20427;-69
2021/07/25 13:14:46;;;;;;;6.43;4.00;;;;;;;;;;5064629;28;20208;-71
2021/07/25 13:17:34;;;;;;;3.87;3.57;;;;;;;;;;5066413;28;20233;-73
2021/07/25 13:20:19;;;;;;;7.53;4.30;;;;;;;;;;5053911;28;20731;-71
2021/07/25 13:23:04;;;;;;;5.53;4.17;;;;;;;;;;5064634;28;20220;-71
2021/07/25 13:25:49;;;;;;;3.90;3.50;;;;;;;;;;5067982;28;20220;-69
2021/07/25 13:28:34;;;;;;;3.75;3.40;;;;;;;;;;5064566;28;20423;-70
2021/07/25 13:31:20;;;;;;;4.10;3.40;;;;;;;;;;5066782;28;20354;-70
2021/07/25 13:34:06;;;;;;;5.30;3.30;;;;;;;;;;5065846;28;20216;-69
2021/07/25 13:36:51;;;;;;;5.07;3.50;;;;;;;;;;5059408;28;20768;-69
2021/07/25 13:39:36;;;;;;;3.73;3.43;;;;;;;;;;5057050;28;20208;-70
2021/07/25 13:42:21;;;;;;;4.97;3.30;;;;;;;;;;5071850;28;20229;-69
2021/07/25 13:45:09;;;;;;;5.13;3.60;;;;;;;;;;5055105;28;20209;-70
2021/07/25 13:47:54;;;;;;;4.90;3.27;;;;;;;;;;5069484;28;20212;-68
2021/07/25 13:50:41;;;;;;;4.90;3.50;;;;;;;;;;5064173;28;20582;-70
2021/07/25 13:53:27;;;;;;;4.20;3.00;;;;;;;;;;5058499;28;20201;-70
2021/07/25 13:56:16;;;;;;;3.40;3.10;;;;;;;;;;5063281;28;20378;-70
2021/07/25 13:59:01;;;;;;;4.23;3.10;;;;;;;;;;5057587;28;20222;-70
2021/07/25 14:01:46;;;;;;;3.95;3.22;;;;;;;;;;5065065;28;20513;-70
2021/07/25 14:04:31;;;;;;;3.60;3.10;;;;;;;;;;5061452;28;20779;-71
2021/07/25 14:07:17;;;;;;;4.00;3.10;;;;;;;;;;5068089;28;20216;-69
2021/07/25 14:10:02;;;;;;;5.73;2.90;;;;;;;;;;5067466;28;20332;-69
2021/07/25 14:12:47;;;;;;;3.67;2.93;;;;;;;;;;5069694;28;20217;-69
2021/07/25 14:15:35;;;;;;;3.37;3.07;;;;;;;;;;5060792;28;20216;-70
2021/07/25 14:18:20;;;;;;;3.20;3.00;;;;;;;;;;5067172;28;20235;-69
2021/07/25 14:21:08;;;;;;;3.40;3.10;;;;;;;;;;5065233;28;20231;-69
2021/07/25 14:23:55;;;;;;;4.37;2.93;;;;;;;;;;5063550;28;20216;-68
2021/07/25 14:26:39;;;;;;;3.92;2.97;;;;;;;;;;5065691;28;20432;-69
2021/07/25 14:29:25;;;;;;;3.67;2.80;;;;;;;;;;5054139;28;20696;-69
2021/07/25 14:32:09;;;;;;;3.17;2.87;;;;;;;;;;5058656;28;20253;-69
2021/07/25 14:34:54;;;;;;;3.70;2.50;;;;;;;;;;5052084;28;20279;-69
2021/07/25 14:37:40;;;;;;;2.90;2.60;;;;;;;;;;5056943;28;20229;-68
2021/07/25 14:40:26;;;;;;;2.80;2.60;;;;;;;;;;5057547;28;20216;-69
2021/07/25 14:43:11;;;;;;;2.43;2.23;;;;;;;;;;5049690;28;20233;-70
2021/07/25 14:45:56;;;;;;;3.10;2.60;;;;;;;;;;5051768;28;20212;-69
2021/07/25 14:48:41;;;;;;;3.17;2.47;;;;;;;;;;5052531;28;20225;-70
2021/07/25 14:51:26;;;;;;;3.47;2.80;;;;;;;;;;5069047;28;20224;-70
2021/07/25 14:54:11;;;;;;;5.50;2.60;;;;;;;;;;5055477;28;20212;-70
2021/07/25 14:56:57;;;;;;;5.20;3.00;;;;;;;;;;5059641;28;20724;-70
2021/07/25 14:59:42;;;;;;;5.97;3.10;;;;;;;;;;5060556;28;20208;-70
2021/07/25 15:02:27;;;;;;;3.87;2.90;;;;;;;;;;5067703;28;21006;-70
2021/07/25 15:05:12;;;;;;;3.13;2.73;;;;;;;;;;5069337;28;20386;-70
2021/07/25 15:07:58;;;;;;;3.40;2.77;;;;;;;;;;5056592;28;20213;-69
2021/07/25 15:10:42;;;;;;;4.10;3.20;;;;;;;;;;5057059;28;20236;-68
2021/07/25 15:13:29;;;;;;;2.70;2.50;;;;;;;;;;5068233;28;20566;-68
2021/07/25 15:16:14;;;;;;;3.07;2.80;;;;;;;;;;5061945;28;20692;-67
2021/07/25 15:18:58;;;;;;;2.87;2.60;;;;;;;;;;5064252;28;20242;-68
2021/07/25 15:21:44;;;;;;;3.07;2.77;;;;;;;;;;5064965;28;20236;-67
2021/07/25 15:24:29;;;;;;;2.63;2.43;;;;;;;;;;5063529;28;20204;-67
2021/07/25 15:27:14;;;;;;;3.72;2.92;;;;;;;;;;5055995;28;20448;-67
2021/07/25 15:30:00;;;;;;;3.17;2.27;;;;;;;;;;5066577;28;20229;-67
2021/07/25 15:32:45;;;;;;;3.87;3.53;;;;;;;;;;5068674;28;20728;-67
2021/07/25 15:35:30;;;;;;;4.37;4.07;;;;;;;;;;5063383;28;20209;-67
2021/07/25 15:38:14;;;;;;;4.53;2.90;;;;;;;;;;5053412;28;20232;-68
2021/07/25 15:41:04;;;;;;;2.10;1.83;;;;;;;;;;5064383;28;20231;-67
2021/07/25 15:43:49;;;;;;;2.57;2.27;;;;;;;;;;5068312;28;20212;-68
2021/07/25 15:46:35;;;;;;;2.77;2.10;;;;;;;;;;5062244;28;20700;-68
2021/07/25 15:49:20;;;;;;;2.60;2.13;;;;;;;;;;5060855;28;20569;-67
2021/07/25 15:52:08;;;;;;;3.63;2.47;;;;;;;;;;5067453;28;20232;-68
2021/07/25 15:54:53;;;;;;;2.20;1.97;;;;;;;;;;5068378;28;20208;-67
2021/07/25 15:57:37;;;;;;;4.30;3.50;;;;;;;;;;5048224;28;20279;-67
2021/07/25 16:00:22;;;;;;;5.17;3.93;;;;;;;;;;5060011;28;20205;-67
2021/07/25 16:03:09;;;;;;;4.83;2.50;;;;;;;;;;5060306;28;20225;-68
2021/07/25 16:05:54;;;;;;;5.17;3.37;;;;;;;;;;5069208;28;20848;-67
2021/07/25 16:08:39;;;;;;;2.57;2.00;;;;;;;;;;5060845;28;20785;-68
2021/07/25 16:11:25;;;;;;;3.00;2.70;;;;;;;;;;5065651;28;20248;-67
2021/07/25 16:14:10;;;;;;;3.90;2.53;;;;;;;;;;5071012;28;20216;-67
2021/07/25 16:16:55;;;;;;;3.20;2.87;;;;;;;;;;5068822;28;20293;-67
2021/07/25 16:19:42;;;;;;;3.20;2.90;;;;;;;;;;5062182;28;20208;-67
2021/07/25 16:22:28;;;;;;;5.80;3.30;;;;;;;;;;5063531;28;20223;-67
2021/07/25 16:25:13;;;;;;;4.50;4.00;;;;;;;;;;5063202;28;20283;-67
2021/07/25 16:27:59;;;;;;;6.03;5.53;;;;;;;;;;5060312;28;20444;-70
2021/07/25 16:30:44;;;;;;;8.57;6.00;;;;;;;;;;5063987;28;20224;-68
2021/07/25 16:33:29;;;;;;;7.27;6.60;;;;;;;;;;5070830;28;20780;-68
2021/07/25 16:36:15;;;;;;;7.57;6.83;;;;;;;;;;5062744;28;20288;-68
2021/07/25 16:39:01;;;;;;;7.80;7.10;;;;;;;;;;5068573;28;20224;-68
2021/07/25 16:41:46;;;;;;;9.37;8.10;;;;;;;;;;5059758;28;20229;-67
2021/07/25 16:44:30;;;;;;;9.13;8.33;;;;;;;;;;5062884;28;20234;-67
2021/07/25 16:47:15;;;;;;;8.90;8.20;;;;;;;;;;5066803;28;20347;-67
2021/07/25 16:50:00;;;;;;;8.80;8.10;;;;;;;;;;5070693;28;20220;-69
2021/07/25 16:52:46;;;;;;;10.30;8.23;;;;;;;;;;5063260;28;20248;-68
2021/07/25 16:55:31;;;;;;;9.40;8.60;;;;;;;;;;5056930;28;20234;-66
2021/07/25 16:58:16;;;;;;;9.50;8.50;;;;;;;;;;5070084;28;20361;-66
2021/07/25 17:01:03;;;;;;;9.47;8.60;;;;;;;;;;5067254;28;20233;-69
2021/07/25 17:03:48;;;;;;;9.50;8.73;;;;;;;;;;5068128;28;20318;-68
2021/07/25 17:06:34;;;;;;;9.97;9.07;;;;;;;;;;5058839;28;20212;-67
2021/07/25 17:09:20;;;;;;;8.97;8.17;;;;;;;;;;5062842;28;20209;-67
2021/07/25 17:12:05;;;;;;;8.80;8.10;;;;;;;;;;5059934;28;20294;-67
2021/07/25 17:14:51;;;;;;;10.20;9.20;;;;;;;;;;5056335;28;20208;-68
2021/07/25 17:17:36;;;;;;;11.70;10.60;;;;;;;;;;5055660;28;20691;-68
2021/07/25 17:20:20;;;;;;;10.87;8.70;;;;;;;;;;5065307;28;20706;-67
2021/07/25 17:23:06;;;;;;;8.63;7.93;;;;;;;;;;5059616;28;20207;-68
2021/07/25 17:25:52;;;;;;;8.43;7.60;;;;;;;;;;5061565;28;20229;-68
2021/07/25 17:28:37;;;;;;;8.43;7.33;;;;;;;;;;5062882;28;20209;-69
2021/07/25 17:31:22;;;;;;;8.10;7.40;;;;;;;;;;5060262;28;20298;-68
2021/07/25 17:34:07;;;;;;;8.43;7.03;;;;;;;;;;5059242;28;20698;-68
2021/07/25 17:36:52;;;;;;;7.50;6.90;;;;;;;;;;5058212;28;20619;-68
2021/07/25 17:39:37;;;;;;;6.77;6.27;;;;;;;;;;5061797;28;20238;-69
2021/07/25 17:42:23;;;;;;;7.03;6.53;;;;;;;;;;5067942;28;20242;-69
2021/07/25 17:45:09;;;;;;;7.53;6.50;;;;;;;;;;5058940;28;20209;-69
2021/07/25 17:47:54;;;;;;;7.23;6.73;;;;;;;;;;5060773;28;20208;-68
2021/07/25 17:50:39;;;;;;;6.67;6.20;;;;;;;;;;5061314;28;20208;-69
2021/07/25 17:53:25;;;;;;;7.20;6.50;;;;;;;;;;5058704;28;20236;-70
2021/07/25 17:56:10;;;;;;;5.17;4.73;;;;;;;;;;5056727;28;21218;-69
2021/07/25 17:58:56;;;;;;;4.80;4.40;;;;;;;;;;5058244;28;20240;-68
2021/07/25 18:01:41;;;;;;;3.83;3.53;;;;;;;;;;5063964;28;20232;-69
2021/07/25 18:04:26;;;;;;;3.60;3.30;;;;;;;;;;5061587;28;20208;-70
2021/07/25 18:07:11;;;;;;;3.78;3.55;;;;;;;;;;5067494;28;20865;-69
2021/07/25 18:09:56;;;;;;;4.03;3.73;;;;;;;;;;5059780;28;20226;-68
2021/07/25 18:12:41;;;;;;;3.40;3.20;;;;;;;;;;5060433;28;20295;-68
2021/07/25 18:15:27;;;;;;;3.73;3.53;;;;;;;;;;5062311;28;20714;-68
2021/07/25 18:18:12;;;;;;;3.97;3.67;;;;;;;;;;5062973;28;20224;-68
2021/07/25 18:20:57;;;;;;;3.87;3.57;;;;;;;;;;5070714;28;20272;-69
2021/07/25 18:23:42;;;;;;;3.90;3.60;;;;;;;;;;5058585;28;20274;-69
2021/07/25 18:26:28;;;;;;;3.37;3.17;;;;;;;;;;5053802;28;20214;-69
2021/07/25 18:29:13;;;;;;;3.83;3.53;;;;;;;;;;5062026;28;20850;-68
2021/07/25 18:31:59;;;;;;;3.60;3.30;;;;;;;;;;5056744;28;20422;-68
2021/07/25 18:34:43;;;;;;;3.63;3.30;;;;;;;;;;5057983;28;20281;-68
2021/07/25 18:37:28;;;;;;;3.50;3.20;;;;;;;;;;5055553;28;20207;-68
2021/07/25 18:40:14;;;;;;;4.30;4.00;;;;;;;;;;5056401;28;20579;-69
2021/07/25 18:42:59;;;;;;;6.90;4.00;;;;;;;;;;5059179;28;20218;-68
2021/07/25 18:45:44;;;;;;;16.10;5.57;;;;;;;;;;5058858;28;20216;-67
2021/07/25 18:48:31;;;;;;;18.90;5.90;;;;;;;;;;5054241;28;20217;-68
2021/07/25 18:51:15;;;;;;;6.70;3.63;;;;;;;;;;5061285;28;20232;-67
2021/07/25 18:54:01;;;;;;;6.87;4.20;;;;;;;;;;5058270;28;20575;-66
2021/07/25 18:56:46;;;;;;;4.83;3.87;;;;;;;;;;5053705;28;20616;-67
2021/07/25 18:59:31;;;;;;;5.07;3.80;;;;;;;;;;5063771;28;20239;-66
2021/07/25 19:02:16;;;;;;;5.27;4.20;;;;;;;;;;5056855;28;20311;-65
2021/07/25 19:05:02;;;;;;;6.53;4.80;;;;;;;;;;5062164;28;20257;-66
2021/07/25 19:07:47;;;;;;;7.85;7.03;;;;;;;;;;5062651;28;20439;-66
2021/07/25 19:10:32;;;;;;;8.57;6.87;;;;;;;;;;5054066;28;20205;-64
2021/07/25 19:13:17;;;;;;;8.47;7.67;;;;;;;;;;5065496;28;20294;-66
2021/07/25 19:16:02;;;;;;;8.83;7.87;;;;;;;;;;5060070;28;20590;-66
2021/07/25 19:18:47;;;;;;;9.07;8.17;;;;;;;;;;5060494;28;20222;-67
2021/07/25 19:21:34;;;;;;;9.50;8.57;;;;;;;;;;5061459;28;20231;-68
2021/07/25 19:24:19;;;;;;;9.13;8.20;;;;;;;;;;5057049;28;20222;-66
2021/07/25 19:27:04;;;;;;;9.63;7.93;;;;;;;;;;5056196;28;20227;-67
2021/07/25 19:29:49;;;;;;;10.93;9.93;;;;;;;;;;5062632;28;20636;-67
2021/07/25 19:32:34;;;;;;;9.17;8.37;;;;;;;;;;5055334;28;20740;-67
2021/07/25 19:35:19;;;;;;;9.17;8.37;;;;;;;;;;5058510;28;20335;-66
2021/07/25 19:38:05;;;;;;;10.47;8.70;;;;;;;;;;5062008;28;20306;-67
2021/07/25 19:40:50;;;;;;;9.27;8.47;;;;;;;;;;5064191;28;20238;-67
2021/07/25 19:43:36;;;;;;;10.83;9.73;;;;;;;;;;5068416;28;20205;-67
2021/07/25 19:46:21;;;;;;;10.67;9.67;;;;;;;;;;5060231;28;20202;-68
2021/07/25 19:49:07;;;;;;;12.47;11.37;;;;;;;;;;5064818;28;20209;-67
2021/07/25 19:51:52;;;;;;;15.57;11.23;;;;;;;;;;5069380;28;20259;-67
2021/07/25 19:54:40;;;;;;;13.20;11.83;;;;;;;;;;5060767;28;20210;-67
2021/07/25 19:57:25;;;;;;;16.67;15.13;;;;;;;;;;5066952;28;20216;-67
2021/07/25 20:19:07;;;;;;;19.10;17.20;;;;;;;;;;5562669;23;20329;-66
2021/07/25 20:21:52;;;;;;;14.43;13.03;;;;;;;;;;4954820;29;20273;-66
2021/07/25 20:24:37;;;;;;;13.50;12.20;;;;;;;;;;4942378;29;20217;-65
2021/07/25 20:27:22;;;;;;;15.13;13.77;;;;;;;;;;4938204;29;20430;-65
2021/07/25 20:30:08;;;;;;;10.87;9.97;;;;;;;;;;4946351;28;20716;-65
2021/07/25 20:32:54;;;;;;;9.10;8.33;;;;;;;;;;4945827;29;20293;-65
2021/07/25 20:35:41;;;;;;;9.70;8.87;;;;;;;;;;4979047;23;20299;-65
2021/07/25 20:38:26;;;;;;;9.10;8.20;;;;;;;;;;4961621;28;20206;-66
2021/07/25 20:41:12;;;;;;;9.23;8.10;;;;;;;;;;4961977;28;20276;-66
2021/07/25 20:43:57;;;;;;;10.47;9.57;;;;;;;;;;4964586;28;20269;-67
2021/07/25 20:46:42;;;;;;;12.27;11.17;;;;;;;;;;4965947;28;20760;-67
2021/07/25 20:49:27;;;;;;;13.60;11.77;;;;;;;;;;4966591;28;20222;-67
2021/07/25 20:52:14;;;;;;;12.53;11.33;;;;;;;;;;4972226;28;20687;-65
2021/07/25 20:55:00;;;;;;;11.67;10.57;;;;;;;;;;4960388;28;20319;-66
2021/07/25 20:57:46;;;;;;;11.50;10.40;;;;;;;;;;4963924;28;20342;-68
2021/07/25 21:00:31;;;;;;;12.23;11.00;;;;;;;;;;4961493;28;20226;-68
2021/07/25 21:03:16;;;;;;;12.40;11.20;;;;;;;;;;4965406;28;20210;-67
2021/07/25 21:06:01;;;;;;;15.07;12.27;;;;;;;;;;4966644;28;20320;-67
2021/07/25 21:08:47;;;;;;;11.67;10.30;;;;;;;;;;4972327;28;20290;-67
2021/07/25 21:11:31;;;;;;;11.43;10.30;;;;;;;;;;4972521;28;20220;-67
2021/07/25 21:14:16;;;;;;;12.23;11.00;;;;;;;;;;4972131;28;20731;-66
2021/07/25 21:17:01;;;;;;;11.73;10.83;;;;;;;;;;4971784;28;20238;-67
2021/07/25 21:19:46;;;;;;;12.00;10.80;;;;;;;;;;4970159;28;20221;-67
2021/07/25 21:22:31;;;;;;;11.63;10.50;;;;;;;;;;4973032;28;20211;-68
2021/07/25 21:25:17;;;;;;;11.63;10.53;;;;;;;;;;4971675;28;20361;-67
2021/07/25 21:28:03;;;;;;;12.23;11.10;;;;;;;;;;4970610;28;20593;-67
2021/07/25 21:30:47;;;;;;;11.70;10.53;;;;;;;;;;4971204;28;20207;-67
2021/07/25 21:33:32;;;;;;;10.87;9.97;;;;;;;;;;4971572;28;20256;-68
2021/07/25 21:36:21;;;;;;;9.73;8.90;;;;;;;;;;4971691;28;20216;-67
2021/07/25 21:39:06;;;;;;;12.10;10.90;;;;;;;;;;4970520;28;20303;-67
2021/07/25 21:41:53;;;;;;;10.70;9.70;;;;;;;;;;4972403;28;20275;-66
2021/07/25 21:44:38;;;;;;;9.63;8.77;;;;;;;;;;4971375;28;20720;-67
2021/07/25 21:47:23;;;;;;;11.63;10.53;;;;;;;;;;4970585;28;20297;-67
2021/07/25 21:50:08;;;;;;;9.70;8.83;;;;;;;;;;4971474;28;20569;-67